Hodgeville, Canada
Current Conditions -  °F | °C
As of 12:21 PM on Wednesday 26 Nov 2014 (Local Time) from CYYN Reporting Station
Broken Clouds Broken Clouds  
Wind Chill: -1°   Ceiling: 16000
Heat Index: 12°   Visibility: 9mi
Dew Point: 10°   Wind: 10mph
Humidity: 92%   Direction: 150°SSE
Pressure: 30.24"   Gusts: NA
Location:  50.12°N, 106.98°W
Report Text: CYYN 261821Z AUTO 15009KT 9SM SCT008 BKN160 M11/M12 A3024 RMK SLP297
Loading
Personal Weather Stations






























Interactive Weather Map New forecast layout! Learn more

10-Day Weather Forecast

Advertisements
Track Severe Weather on mobile